Latest Weather Observations for Rottnest Island

IDW60801

Issued at 7:33 pm WST Wednesday 27 July 2016 (issued every 30 minutes, with the page automatically refreshed every 10 minutes)

About weather observations | Map of weather stations | Latest weather observations for WA | Other Formats
Station Details ID: 009193 Name: ROTTNEST ISLAND Lat: -32.01 Lon: 115.50 Height: 43.1 m
Data from the previous 72 hours. | See also: Recent months at Rottnest Island
Date/Time
WST
Temp
°C
App
Temp
°C
Dew
Point
°C
Rel
Hum
%
Delta-T
°C
Wind Press
QNH
hPa
Press
MSL
hPa
Rain since
9am
mm
Dir  Spd
km/h
Gust
km/h
Spd
kts
Gust
kts
27/07:30pm 15.8 13.2 9.2 65 3.4 ENE 13 17 7 9 1023.7 1023.7 0.0
27/07:00pm 16.2 13.4 8.7 61 3.8 NE 13 15 7 8 1023.4 1023.4 0.0
27/06:30pm 16.2 13.8 8.7 61 3.8 NNE 11 13 6 7 1023.6 1023.6 0.0
27/06:00pm 16.3 13.8 8.3 59 4.0 N 11 13 6 7 1023.7 1023.7 0.0
27/05:30pm 16.2 13.3 8.2 59 4.1 NNE 13 17 7 9 1023.1 1023.1 0.0
27/05:00pm 16.6 13.4 8.3 58 4.2 NNE 15 19 8 10 1022.9 1022.9 0.0
27/04:30pm 16.9 13.6 8.1 56 4.5 NNE 15 20 8 11 1022.7 1022.7 0.0
27/04:00pm 17.1 13.8 8.0 55 4.6 N 15 19 8 10 1023.0 1023.0 0.0
27/03:30pm 17.2 14.0 8.6 57 4.4 NNE 15 20 8 11 1023.0 1023.0 0.0
27/03:00pm 17.5 14.3 8.6 56 4.6 NNE 15 20 8 11 1022.8 1022.8 0.0
27/02:30pm 17.4 13.3 8.5 56 4.6 NNE 20 28 11 15 1022.6 1022.6 0.0
27/02:00pm 17.2 11.9 8.4 56 4.5 NNE 26 30 14 16 1022.7 1022.7 0.0
27/01:30pm 17.7 13.3 9.1 57 4.5 NNE 22 30 12 16 1023.1 1023.1 0.0
27/01:00pm 16.7 12.5 9.9 64 3.6 NNE 22 28 12 15 1023.9 1023.9 0.0
27/12:30pm 17.1 12.6 10.2 64 3.7 NNE 24 28 13 15 1024.3 1024.3 0.0
27/12:00pm 15.9 12.0 9.6 66 3.3 NNE 20 28 11 15 1025.3 1025.3 0.0
27/11:30am 14.9 10.6 9.3 69 2.9 NNE 22 28 12 15 1025.6 1025.6 0.0
27/11:00am 14.7 10.4 9.3 70 2.8 NE 22 30 12 16 1025.8 1025.8 0.0
27/10:30am 13.6 8.4 8.9 73 2.4 NE 26 33 14 18 1026.1 1026.1 0.0
27/10:00am 13.3 8.8 8.6 73 2.3 NE 22 33 12 18 1026.6 1026.6 0.0
27/09:30am 13.1 9.0 8.8 75 2.2 NE 20 26 11 14 1026.6 1026.6 0.0
27/09:00am 12.5 9.1 9.1 80 1.7 NE 17 24 9 13 1026.8 1026.8 0.0
27/08:30am 12.2 8.4 9.2 82 1.5 ENE 19 26 10 14 1026.2 1026.2 0.0
27/08:00am 12.0 8.2 9.2 83 1.4 ENE 19 26 10 14 1026.4 1026.4 0.0
27/07:30am 11.9 8.1 9.1 83 1.4 ENE 19 26 10 14 1026.4 1026.4 0.0
27/07:00am 11.9 8.5 9.1 83 1.4 NE 17 20 9 11 1026.6 1026.6 0.0
27/06:30am 12.1 9.1 9.3 83 1.4 NE 15 19 8 10 1027.0 1027.0 0.0
27/06:00am 12.1 9.1 9.3 83 1.4 NE 15 19 8 10 1027.0 1027.0 0.0
27/05:30am 12.1 9.5 9.3 83 1.4 NE 13 15 7 8 1026.8 1026.8 0.0
27/05:00am 12.1 9.1 9.3 83 1.4 NE 15 17 8 9 1027.0 1027.0 0.0
27/04:30am 12.2 9.2 9.4 83 1.4 NE 15 19 8 10 1026.6 1026.6 0.0
27/04:00am 12.4 9.5 9.6 83 1.4 NE 15 17 8 9 1026.6 1026.6 0.0
27/03:30am 12.6 9.6 9.4 81 1.6 NE 15 19 8 10 1026.8 1026.8 0.0
27/03:00am 13.0 10.5 9.6 80 1.7 NE 13 17 7 9 1027.0 1027.0 0.0
27/02:30am 12.7 9.7 9.2 79 1.8 NE 15 17 8 9 1027.1 1027.1 0.0
27/02:00am 12.9 10.3 9.2 78 1.9 NE 13 17 7 9 1027.0 1027.0 0.0
27/01:30am 12.9 10.5 8.6 75 2.2 E 11 15 6 8 1027.3 1027.3 0.0
27/01:00am 13.1 10.4 8.8 75 2.1 ESE 13 17 7 9 1027.5 1027.5 0.0
27/12:30am 13.1 10.0 8.8 75 2.2 ESE 15 19 8 10 1027.0 1027.0 0.0
27/12:00am 13.3 10.2 8.8 74 2.3 ESE 15 19 8 10 1027.1 1027.1 0.0
 
Date/Time
WST
Temp
°C
App
Temp
°C
Dew
Point
°C
Rel
Hum
%
Delta-T
°C
Wind Press
QNH
hPa
Press
MSL
hPa
Rain since
9am
mm
Dir  Spd
km/h
Gust
km/h
Spd
kts
Gust
kts
26/11:30pm 13.6 10.5 8.9 73 2.4 SE 15 24 8 13 1027.2 1027.2 0.0
26/11:00pm 14.2 10.2 9.0 71 2.6 SE 20 26 11 14 1027.2 1027.2 0.0
26/10:30pm 14.4 10.4 9.0 70 2.8 SE 20 26 11 14 1027.1 1027.1 0.0
26/10:00pm 14.9 10.9 9.1 68 3.0 SSE 20 26 11 14 1027.4 1027.4 0.0
26/09:30pm 15.0 11.2 9.1 68 3.0 SSE 19 24 10 13 1027.7 1027.7 0.0
26/09:00pm 15.0 11.0 8.9 67 3.1 S 20 24 11 13 1027.8 1027.8 0.0
26/08:30pm 15.0 11.0 8.9 67 3.1 S 20 26 11 14 1027.9 1027.9 0.0
26/08:00pm 14.7 10.8 8.6 67 3.1 S 19 24 10 13 1027.9 1027.9 0.0
26/07:30pm 14.8 11.4 9.0 68 3.0 S 17 20 9 11 1027.9 1027.9 0.0
26/07:00pm 14.6 11.2 9.2 70 2.7 S 17 22 9 12 1027.6 1027.6 0.0
26/06:30pm 14.9 11.5 9.3 69 2.9 SSE 17 20 9 11 1027.4 1027.4 0.0
26/06:00pm 15.0 12.0 9.4 69 2.9 SSE 15 22 8 12 1027.1 1027.1 0.0
26/05:30pm 14.8 11.4 9.2 69 2.9 SSE 17 20 9 11 1026.9 1026.9 0.0
26/05:00pm 15.4 12.1 9.5 68 3.0 SSE 17 22 9 12 1026.8 1026.8 0.0
26/04:30pm 15.5 12.6 9.6 68 3.1 SSE 15 19 8 10 1026.9 1026.9 0.0
26/04:00pm 15.9 13.4 9.6 66 3.3 SSE 13 17 7 9 1026.9 1026.9 0.0
26/03:30pm 15.7 13.5 9.4 66 3.3 S 11 17 6 9 1026.9 1026.9 0.0
26/03:00pm 16.2 14.4 9.4 64 3.5 S 9 13 5 7 1027.1 1027.1 0.0
26/02:30pm 15.9 14.6 9.8 67 3.2 SSE 7 11 4 6 1027.1 1027.1 0.0
26/02:00pm 16.7 15.8 10.8 68 3.1 NNE 6 11 3 6 1027.2 1027.2 0.0
26/01:30pm 16.9 14.3 10.7 67 3.3 NNE 15 20 8 11 1027.2 1027.2 0.0
26/01:00pm 16.7 14.1 10.8 68 3.1 N 15 20 8 11 1027.5 1027.5 0.0
26/12:30pm 15.9 12.8 10.2 69 3.0 N 17 20 9 11 1027.8 1027.8 0.0
26/12:00pm 16.1 13.8 10.4 69 3.0 NNE 13 17 7 9 1028.1 1028.1 0.0
26/11:30am 16.3 14.2 11.0 71 2.8 NNE 13 17 7 9 1028.3 1028.3 0.0
26/11:00am 15.2 12.6 10.6 74 2.4 NNE 15 20 8 11 1028.7 1028.7 0.0
26/10:30am 13.7 10.9 10.1 79 1.9 NE 15 19 8 10 1028.8 1028.8 0.0
26/10:00am 14.2 10.8 10.4 78 2.0 NNE 19 22 10 12 1028.7 1028.7 0.0
26/09:30am 14.4 11.4 10.8 79 1.9 NNE 17 20 9 11 1028.6 1028.6 0.0
26/09:00am 14.6 12.1 11.2 80 1.8 N 15 19 8 10 1028.4 1028.4 0.0
26/08:30am 13.7 12.0 11.2 85 1.3 N 11 15 6 8 1028.3 1028.3 0.0
26/08:00am 12.9 10.6 10.4 85 1.3 N 13 17 7 9 1028.1 1028.1 0.0
26/07:30am 12.7 10.0 10.2 85 1.3 N 15 19 8 10 1027.9 1027.9 0.0
26/07:00am 12.6 9.8 10.1 85 1.3 NNE 15 17 8 9 1027.6 1027.6 0.0
26/06:30am 12.7 10.3 10.1 84 1.3 NNE 13 15 7 8 1027.6 1027.6 0.0
26/06:00am 13.0 9.8 10.0 82 1.5 NNE 17 20 9 11 1027.4 1027.4 0.0
26/05:30am 13.3 11.0 10.3 82 1.6 NNE 13 17 7 9 1027.2 1027.2 0.0
26/05:00am 13.1 10.8 10.3 83 1.4 N 13 15 7 8 1027.0 1027.0 0.0
26/04:30am 12.5 9.9 9.5 82 1.5 N 13 17 7 9 1026.9 1026.9 0.0
26/04:00am 12.9 10.0 9.7 81 1.6 N 15 20 8 11 1027.0 1027.0 0.0
26/03:30am 13.0 10.4 9.4 79 1.8 NNE 13 15 7 8 1027.4 1027.4 0.0
26/03:00am 13.2 10.6 9.3 77 2.0 NNE 13 15 7 8 1027.4 1027.4 0.0
26/02:30am 13.1 10.5 9.4 78 1.9 NNE 13 13 7 7 1027.3 1027.3 0.0
26/02:00am 12.6 9.9 9.1 79 1.8 NE 13 15 7 8 1027.3 1027.3 0.0
26/01:30am 12.9 10.6 9.0 77 2.0 NNE 11 13 6 7 1027.5 1027.5 0.0
26/01:00am 12.6 10.3 9.1 79 1.8 NNE 11 13 6 7 1027.6 1027.6 0.0
26/12:30am 12.5 9.8 8.8 78 1.9 NE 13 17 7 9 1027.4 1027.4 0.0
26/12:00am 12.9 10.1 8.6 75 2.1 NE 13 19 7 10 1027.9 1027.9 0.0
 
Date/Time
WST
Temp
°C
App
Temp
°C
Dew
Point
°C
Rel
Hum
%
Delta-T
°C
Wind Press
QNH
hPa
Press
MSL
hPa
Rain since
9am
mm
Dir  Spd
km/h
Gust
km/h
Spd
kts
Gust
kts
25/11:30pm 14.3 10.8 8.7 69 2.8 SSE 17 20 9 11 1028.0 1028.0 0.0
25/11:00pm 14.1 10.9 8.5 69 2.8 S 15 19 8 10 1028.0 1028.0 0.0
25/10:30pm 13.7 10.2 8.7 72 2.5 S 17 20 9 11 1028.3 1028.3 0.0
25/10:00pm 13.8 10.3 8.6 71 2.6 SSW 17 22 9 12 1028.3 1028.3 0.0
25/09:30pm 13.2 9.9 8.1 71 2.5 S 15 19 8 10 1028.1 1028.1 0.0
25/09:00pm 13.5 11.4 8.1 70 2.7 S 9 13 5 7 1027.8 1027.8 0.0
25/08:30pm 13.8 11.7 8.2 69 2.8 SSE 9 15 5 8 1027.8 1027.8 0.0
25/08:00pm 13.8 11.3 8.2 69 2.8 SSE 11 15 6 8 1027.8 1027.8 0.0
25/07:30pm 13.7 9.9 7.7 67 3.0 S 17 20 9 11 1027.8 1027.8 0.0
25/07:00pm 13.9 10.1 7.7 66 3.0 S 17 20 9 11 1027.4 1027.4 0.0
25/06:30pm 14.5 9.7 7.3 62 3.5 SSE 22 30 12 16 1027.1 1027.1 0.0
25/06:00pm 14.1 9.8 7.2 63 3.4 SSE 19 26 10 14 1027.0 1027.0 0.0
25/05:30pm 14.1 9.7 7.2 63 3.4 SSE 20 28 11 15 1026.9 1026.9 0.0
25/05:00pm 14.3 10.4 7.1 62 3.5 SSE 17 26 9 14 1026.8 1026.8 0.0
25/04:30pm 14.5 10.6 7.1 61 3.6 SSE 17 24 9 13 1026.6 1026.6 0.0
25/04:00pm 14.9 10.6 7.2 60 3.8 SSE 19 24 10 13 1026.4 1026.4 0.0
25/03:30pm 15.1 10.2 6.9 58 4.0 SSE 22 30 12 16 1026.4 1026.4 0.0
25/03:00pm 15.2 9.6 7.3 59 3.9 SSE 26 35 14 19 1026.2 1026.2 0.0
25/02:30pm 15.1 9.2 7.6 61 3.7 SSE 28 35 15 19 1026.3 1026.3 0.0
25/02:00pm 15.4 10.2 7.4 59 3.9 SSE 24 32 13 17 1026.5 1026.5 0.0
25/01:30pm 14.9 9.6 6.7 58 4.0 SSE 24 32 13 17 1026.8 1026.8 0.0
25/01:00pm 15.0 11.1 7.1 59 3.9 SE 17 24 9 13 1027.0 1027.0 0.0
25/12:30pm 14.5 10.0 7.1 61 3.6 SE 20 26 11 14 1027.4 1027.4 0.0
25/12:00pm 14.7 10.8 7.0 60 3.7 SE 17 24 9 13 1027.8 1027.8 0.0
25/11:30am 13.7 9.6 6.1 60 3.6 SE 17 24 9 13 1028.3 1028.3 0.0
25/11:00am 14.0 10.0 6.6 61 3.5 SE 17 22 9 12 1028.4 1028.4 0.0
25/10:30am 13.3 9.9 5.7 60 3.6 ESE 13 20 7 11 1028.6 1028.6 0.0
25/10:00am 13.0 9.3 6.4 64 3.1 SE 15 22 8 12 1028.6 1028.6 0.0
25/09:30am 12.9 9.6 6.5 65 3.1 E 13 20 7 11 1028.5 1028.5 0.0
25/09:00am 12.8 9.5 6.6 66 2.9 E 13 24 7 13 1028.3 1028.3 0.0
25/08:30am 12.0 8.7 6.5 69 2.6 ESE 13 17 7 9 1028.3 1028.3 0.0
25/08:00am 11.3 8.0 6.6 73 2.2 ESE 13 19 7 10 1028.1 1028.1 0.0
25/07:30am 10.6 7.7 6.6 76 1.9 E 11 17 6 9 1027.8 1027.8 0.0
25/07:00am 10.7 7.1 6.6 76 1.9 E 15 20 8 11 1027.3 1027.3 0.0
25/06:30am 11.1 7.5 6.6 74 2.1 NE 15 20 8 11 1026.9 1026.9 0.0
25/06:00am 11.3 8.1 6.8 74 2.1 E 13 17 7 9 1026.7 1026.7 0.0
25/05:30am 11.5 8.3 6.8 73 2.2 ESE 13 19 7 10 1026.7 1026.7 0.0
25/05:00am 11.9 8.0 7.0 72 2.3 ESE 17 24 9 13 1026.6 1026.6 0.0
25/04:30am 12.0 8.8 6.9 71 2.4 E 13 17 7 9 1026.5 1026.5 0.0
25/04:00am 12.2 9.1 7.1 71 2.4 ESE 13 17 7 9 1026.6 1026.6 0.0
25/03:30am 12.1 9.4 7.2 72 2.4 E 11 17 6 9 1026.5 1026.5 0.0
25/03:00am 12.0 9.7 7.3 73 2.3 E 9 13 5 7 1026.7 1026.7 0.0
25/02:30am 11.7 8.9 7.0 73 2.3 E 11 13 6 7 1026.7 1026.7 0.0
25/02:00am 11.8 9.0 6.9 72 2.3 ENE 11 13 6 7 1026.7 1026.7 0.0
25/01:30am 12.0 9.2 7.1 72 2.4 SE 11 17 6 9 1027.0 1027.0 0.0
25/01:00am 12.2 9.0 6.7 69 2.6 E 13 17 7 9 1026.9 1026.9 0.0
25/12:30am 12.3 9.4 6.6 68 2.7 E 11 17 6 9 1027.2 1027.2 0.0
25/12:00am 12.4 8.7 6.5 67 2.8 E 15 19 8 10 1027.3 1027.3 0.0
 
Date/Time
WST
Temp
°C
App
Temp
°C
Dew
Point
°C
Rel
Hum
%
Delta-T
°C
Wind Press
QNH
hPa
Press
MSL
hPa
Rain since
9am
mm
Dir  Spd
km/h
Gust
km/h
Spd
kts
Gust
kts
24/11:30pm 12.4 9.2 6.9 69 2.6 E 13 15 7 8 1027.4 1027.4 0.0
24/11:00pm 12.5 9.7 6.8 68 2.7 E 11 15 6 8 1027.5 1027.5 0.0
24/10:30pm 12.8 10.3 6.6 66 3.0 NE 9 13 5 7 1027.5 1027.5 0.0
24/10:00pm 12.8 9.9 6.6 66 2.9 ESE 11 15 6 8 1027.7 1027.7 0.0
24/09:30pm 12.7 9.9 7.0 68 2.8 ESE 11 15 6 8 1027.6 1027.6 0.0
24/09:00pm 13.2 8.9 7.0 66 3.0 SE 19 24 10 13 1027.5 1027.5 0.0
24/08:30pm 13.3 8.4 6.9 65 3.1 SSE 22 30 12 16 1027.2 1027.2 0.0
24/08:00pm 13.3 7.7 7.1 66 3.0 S 26 33 14 18 1027.1 1027.1 0.0

Other Formats:

Comma delimited format used in spreadsheet applications
http://www.bom.gov.au/fwo/IDW60801/IDW60801.94602.axf

JavaScript Object Notation format (JSON) in row-major order
http://www.bom.gov.au/fwo/IDW60801/IDW60801.94602.json